createdAt,value
2023-04-12T00:00:15.793Z,66.18
2023-04-12T00:00:50.759Z,68.35
2023-04-12T00:01:22.735Z,66.45
2023-04-12T00:01:54.758Z,67.70
2023-04-12T00:02:28.355Z,66.65
2023-04-12T00:03:03.225Z,65.13
2023-04-12T00:03:35.371Z,65.75
2023-04-12T00:04:07.580Z,67.53
2023-04-12T00:04:41.197Z,67.53
2023-04-12T00:05:13.902Z,66.38
2023-04-12T00:05:48.180Z,67.53
2023-04-12T00:06:27.586Z,67.68
2023-04-12T00:07:01.167Z,67.82
2023-04-12T00:07:33.144Z,66.03
2023-04-12T00:08:06.849Z,66.00
2023-04-12T00:08:38.775Z,65.18
2023-04-12T00:09:10.810Z,67.05
2023-04-12T00:09:43.694Z,66.88
2023-04-12T00:10:15.590Z,67.43
2023-04-12T00:10:47.496Z,66.57
2023-04-12T00:11:20.383Z,66.13
2023-04-12T00:11:52.304Z,66.93
2023-04-12T00:12:24.246Z,66.65
2023-04-12T00:12:57.106Z,66.55
2023-04-12T00:13:29.410Z,65.68
2023-04-12T00:14:01.326Z,65.35
2023-04-12T00:14:33.266Z,65.53
2023-04-12T00:15:08.219Z,66.18
2023-04-12T00:15:40.507Z,65.45
2023-04-12T00:16:15.836Z,66.05
2023-04-12T00:16:47.873Z,64.90
2023-04-12T00:17:19.887Z,64.82
2023-04-12T00:17:52.860Z,66.28
2023-04-12T00:18:25.492Z,65.22
2023-04-12T00:18:57.935Z,65.05
2023-04-12T00:19:31.048Z,66.55
2023-04-12T00:20:05.516Z,65.07
2023-04-12T00:20:38.171Z,64.32
2023-04-12T00:21:13.246Z,64.22
2023-04-12T00:21:45.360Z,64.32
2023-04-12T00:22:17.296Z,63.80
2023-04-12T00:22:50.376Z,66.07
2023-04-12T00:23:22.454Z,65.78
2023-04-12T00:23:54.896Z,64.82
2023-04-12T00:24:27.847Z,64.40
2023-04-12T00:24:59.759Z,64.25
2023-04-12T00:25:31.650Z,64.32
2023-04-12T00:26:04.714Z,64.10
2023-04-12T00:26:36.694Z,63.58
2023-04-12T00:27:08.894Z,64.00
2023-04-12T00:27:42.362Z,64.00
2023-04-12T00:28:14.451Z,63.85
2023-04-12T00:28:46.413Z,62.95
2023-04-12T00:29:19.323Z,63.42
2023-04-12T00:29:52.819Z,63.03
2023-04-12T00:30:24.977Z,63.90
2023-04-12T00:30:58.072Z,64.00
2023-04-12T00:31:30.176Z,63.92
2023-04-12T00:32:03.814Z,63.38
2023-04-12T00:32:36.984Z,64.57
2023-04-12T00:33:08.977Z,63.67
2023-04-12T00:33:41.635Z,63.05
2023-04-12T00:34:14.570Z,62.75
2023-04-12T00:34:46.586Z,64.78
2023-04-12T00:35:19.009Z,63.80
2023-04-12T00:35:52.994Z,62.03
2023-04-12T00:36:27.153Z,63.53
2023-04-12T00:36:59.783Z,63.92
2023-04-12T00:37:32.690Z,62.53
2023-04-12T00:38:10.585Z,62.15
2023-04-12T00:38:45.921Z,63.13
2023-04-12T00:39:18.818Z,63.03
2023-04-12T00:39:50.910Z,64.32
2023-04-12T00:40:23.002Z,63.60
2023-04-12T00:40:56.147Z,63.28
2023-04-12T00:41:28.271Z,63.80
2023-04-12T00:42:03.868Z,63.88
2023-04-12T00:42:37.691Z,63.45
2023-04-12T00:43:10.412Z,62.83
2023-04-12T00:43:42.375Z,62.22
2023-04-12T00:44:18.123Z,63.90
2023-04-12T00:44:50.373Z,63.72
2023-04-12T00:45:22.621Z,63.83
2023-04-12T00:45:58.016Z,65.30
2023-04-12T00:46:32.975Z,62.00
2023-04-12T00:47:05.418Z,62.78
2023-04-12T00:47:38.867Z,63.00
2023-04-12T00:48:11.063Z,62.60
2023-04-12T00:48:43.587Z,63.38
2023-04-12T00:49:16.721Z,63.20
2023-04-12T00:49:48.897Z,64.05
2023-04-12T00:50:21.340Z,63.47
2023-04-12T00:50:55.403Z,63.08
2023-04-12T00:51:33.174Z,63.17
2023-04-12T00:52:08.537Z,64.00
2023-04-12T00:52:41.899Z,63.13
2023-04-12T00:53:14.657Z,63.67
2023-04-12T00:53:47.626Z,63.70
2023-04-12T00:54:20.379Z,63.92
2023-04-12T00:54:53.828Z,64.07
2023-04-12T00:55:26.771Z,64.70
2023-04-12T00:55:58.756Z,62.50
2023-04-12T00:56:31.721Z,64.10
2023-04-12T00:57:04.179Z,62.83
2023-04-12T00:57:38.760Z,63.50
2023-04-12T00:58:10.742Z,64.30
2023-04-12T00:58:43.628Z,63.95
2023-04-12T00:59:15.717Z,63.53
2023-04-12T00:59:48.620Z,63.65
2023-04-12T01:00:21.692Z,63.42
2023-04-12T01:00:54.719Z,64.57
2023-04-12T01:01:28.143Z,65.25
2023-04-12T01:02:01.671Z,63.58
2023-04-12T01:02:34.765Z,63.95
2023-04-12T01:03:08.524Z,64.47
2023-04-12T01:03:43.365Z,62.97
2023-04-12T01:04:18.562Z,64.18
2023-04-12T01:04:51.449Z,64.10
2023-04-12T01:05:25.288Z,63.25
2023-04-12T01:06:10.342Z,64.63
2023-04-12T01:06:57.541Z,63.53
2023-04-12T01:07:39.990Z,62.65
2023-04-12T01:08:19.215Z,64.00
2023-04-12T01:08:59.261Z,63.03
2023-04-12T01:09:37.114Z,63.33
2023-04-12T01:10:17.092Z,63.67
2023-04-12T01:10:57.893Z,63.95
2023-04-12T01:11:37.119Z,65.28
2023-04-12T01:12:18.511Z,62.63
2023-04-12T01:13:01.188Z,63.95
2023-04-12T01:13:38.904Z,63.50
2023-04-12T01:14:18.542Z,63.92
2023-04-12T01:14:57.456Z,64.10
2023-04-12T01:15:35.769Z,63.65
2023-04-12T01:16:13.481Z,63.20
2023-04-12T01:16:51.503Z,62.55
2023-04-12T01:17:30.892Z,64.38
2023-04-12T01:18:05.720Z,62.88
2023-04-12T01:18:42.903Z,64.13
2023-04-12T01:19:34.910Z,63.03
2023-04-12T01:20:14.316Z,63.50
2023-04-12T01:20:54.678Z,63.85
2023-04-12T01:21:35.602Z,62.35
2023-04-12T01:22:19.763Z,63.03
2023-04-12T01:23:18.948Z,63.15
2023-04-12T01:24:06.700Z,63.30
2023-04-12T01:24:52.928Z,62.35
2023-04-12T01:25:40.305Z,62.10
2023-04-12T01:26:33.006Z,61.80
2023-04-12T01:27:16.221Z,61.78
2023-04-12T01:27:53.055Z,62.58
2023-04-12T01:28:31.828Z,62.75
2023-04-12T01:29:10.990Z,62.67
2023-04-12T01:29:43.358Z,62.53
2023-04-12T01:30:18.001Z,62.93
2023-04-12T01:30:52.097Z,62.05
2023-04-12T01:31:29.086Z,64.00
2023-04-12T01:32:03.795Z,63.20
2023-04-12T01:32:38.340Z,62.72
2023-04-12T01:33:12.048Z,62.88
2023-04-12T01:33:46.367Z,61.90
2023-04-12T01:34:23.430Z,63.28
2023-04-12T01:34:57.871Z,63.00
2023-04-12T01:35:34.997Z,62.55
2023-04-12T01:36:12.477Z,63.60
2023-04-12T01:36:47.588Z,62.40
2023-04-12T01:37:22.253Z,61.50
2023-04-12T01:37:54.637Z,62.30
2023-04-12T01:38:27.822Z,63.63
2023-04-12T01:39:01.504Z,62.57
2023-04-12T01:39:33.993Z,63.50
2023-04-12T01:40:09.252Z,62.95
2023-04-12T01:40:42.811Z,62.63
2023-04-12T01:41:15.056Z,62.88
2023-04-12T01:41:49.012Z,62.33
2023-04-12T01:42:21.957Z,62.75
2023-04-12T01:43:06.070Z,62.92
2023-04-12T01:43:41.494Z,62.40
2023-04-12T01:44:15.313Z,62.50
2023-04-12T01:44:47.470Z,62.40
2023-04-12T01:45:19.484Z,62.90
2023-04-12T01:45:52.473Z,64.07
2023-04-12T01:46:24.866Z,62.53
2023-04-12T01:46:57.315Z,63.15
2023-04-12T01:47:32.021Z,62.75
2023-04-12T01:48:06.204Z,63.15
2023-04-12T01:48:39.292Z,62.70
2023-04-12T01:49:13.131Z,61.58
2023-04-12T01:49:55.589Z,62.63
2023-04-12T01:50:37.031Z,61.75
2023-04-12T01:51:16.155Z,62.17
2023-04-12T01:51:55.141Z,62.60
2023-04-12T01:52:32.320Z,61.67
2023-04-12T01:53:11.041Z,62.03
2023-04-12T01:53:49.866Z,62.20
2023-04-12T01:54:24.585Z,62.92
2023-04-12T01:54:58.983Z,62.42
2023-04-12T01:55:33.249Z,61.65
2023-04-12T01:56:09.615Z,62.60
2023-04-12T01:56:44.956Z,61.13
2023-04-12T01:57:20.871Z,62.03
2023-04-12T01:57:53.894Z,61.65
2023-04-12T01:58:29.455Z,62.67
2023-04-12T01:59:05.377Z,62.28
2023-04-12T01:59:40.403Z,61.90
2023-04-12T02:00:14.146Z,61.55
2023-04-12T02:00:48.389Z,62.35
2023-04-12T02:01:21.077Z,61.85
2023-04-12T02:01:53.437Z,61.72
2023-04-12T02:02:27.430Z,62.85
2023-04-12T02:03:00.091Z,62.75
2023-04-12T02:03:33.893Z,61.70
2023-04-12T02:04:10.719Z,62.03
2023-04-12T02:04:43.821Z,62.88
2023-04-12T02:05:16.640Z,61.92
2023-04-12T02:05:51.424Z,61.40
2023-04-12T02:06:26.762Z,61.65
2023-04-12T02:06:58.835Z,61.28
2023-04-12T02:07:32.263Z,61.35
2023-04-12T02:08:04.822Z,61.50
2023-04-12T02:08:37.507Z,61.45
2023-04-12T02:09:10.551Z,61.00
2023-04-12T02:09:42.465Z,60.90
2023-04-12T02:10:14.793Z,61.38
2023-04-12T02:10:47.351Z,62.25
2023-04-12T02:11:22.251Z,62.63
2023-04-12T02:11:54.186Z,61.83
2023-04-12T02:12:26.120Z,61.40
2023-04-12T02:13:02.052Z,60.90
2023-04-12T02:13:36.856Z,60.83
2023-04-12T02:14:10.136Z,61.22
2023-04-12T02:14:43.075Z,60.60
2023-04-12T02:15:16.202Z,60.90
2023-04-12T02:15:48.214Z,61.10
2023-04-12T02:16:23.053Z,61.30
2023-04-12T02:16:55.086Z,60.40
2023-04-12T02:17:29.684Z,61.17
2023-04-12T02:18:03.347Z,60.83
2023-04-12T02:18:35.474Z,61.45
2023-04-12T02:19:08.949Z,62.83
2023-04-12T02:19:41.834Z,60.65
2023-04-12T02:20:17.994Z,60.95
2023-04-12T02:20:50.143Z,61.00
2023-04-12T02:21:23.039Z,62.80
2023-04-12T02:21:55.191Z,61.83
2023-04-12T02:22:27.279Z,60.63
2023-04-12T02:23:01.046Z,60.28
2023-04-12T02:23:32.991Z,60.10
2023-04-12T02:24:05.287Z,60.45
2023-04-12T02:24:37.238Z,61.85
2023-04-12T02:25:10.461Z,60.38
2023-04-12T02:25:44.101Z,60.83
2023-04-12T02:26:16.837Z,61.17
2023-04-12T02:26:50.749Z,60.45
2023-04-12T02:27:23.106Z,60.33
2023-04-12T02:27:55.372Z,60.55
2023-04-12T02:28:28.750Z,60.40
2023-04-12T02:29:02.232Z,59.97
2023-04-12T02:29:34.436Z,59.97
2023-04-12T02:30:09.053Z,60.97
2023-04-12T02:30:41.780Z,59.92
2023-04-12T02:31:17.132Z,60.85
2023-04-12T02:31:51.232Z,60.55
2023-04-12T02:32:23.408Z,61.30
2023-04-12T02:32:56.252Z,60.08
2023-04-12T02:33:33.190Z,60.22
2023-04-12T02:34:06.525Z,60.88
2023-04-12T02:34:39.945Z,60.60
2023-04-12T02:35:22.937Z,60.53
2023-04-12T02:35:59.562Z,60.28
2023-04-12T02:36:31.642Z,60.15
2023-04-12T02:37:07.217Z,60.45
2023-04-12T02:37:39.763Z,60.43
2023-04-12T02:38:12.716Z,60.83
2023-04-12T02:38:50.776Z,61.10
2023-04-12T02:39:23.397Z,60.63
2023-04-12T02:39:58.986Z,60.80
2023-04-12T02:40:31.930Z,60.55
2023-04-12T02:41:03.951Z,60.47
2023-04-12T02:41:37.970Z,61.55
2023-04-12T02:42:16.698Z,60.60
2023-04-12T02:42:49.463Z,60.72
2023-04-12T02:43:21.486Z,60.30
2023-04-12T02:44:04.633Z,60.40
2023-04-12T02:44:36.891Z,60.58
2023-04-12T02:45:16.572Z,61.25
2023-04-12T02:45:50.042Z,60.80
2023-04-12T02:46:23.966Z,60.45
2023-04-12T02:47:01.585Z,60.25
2023-04-12T02:47:35.629Z,61.42
2023-04-12T02:48:08.916Z,60.70
2023-04-12T02:48:41.328Z,60.17
2023-04-12T02:49:14.449Z,60.25
2023-04-12T02:49:47.131Z,60.70
2023-04-12T02:50:21.896Z,60.53
2023-04-12T02:51:05.352Z,59.65
2023-04-12T02:51:39.265Z,60.40
2023-04-12T02:52:12.051Z,60.25
2023-04-12T02:52:54.583Z,61.25
2023-04-12T02:53:26.622Z,60.88
2023-04-12T02:54:12.837Z,60.80
2023-04-12T02:54:59.436Z,62.03
2023-04-12T02:55:31.532Z,60.45
2023-04-12T02:56:06.845Z,59.88
2023-04-12T02:56:39.843Z,60.33
2023-04-12T02:57:29.647Z,59.85
2023-04-12T02:58:02.724Z,60.72
2023-04-12T02:58:35.867Z,59.63
2023-04-12T02:59:09.276Z,60.70
2023-04-12T03:00:06.727Z,59.78
2023-04-12T03:00:45.785Z,59.65
2023-04-12T03:01:21.252Z,60.85
2023-04-12T03:02:15.744Z,60.55
2023-04-12T03:02:50.014Z,60.17
2023-04-12T03:03:31.969Z,59.83
2023-04-12T03:04:10.449Z,59.95
2023-04-12T03:04:57.033Z,60.63
2023-04-12T03:05:38.035Z,60.40
2023-04-12T03:06:11.197Z,61.33
2023-04-12T03:06:52.482Z,60.10
2023-04-12T03:07:30.499Z,60.67
2023-04-12T03:08:03.421Z,60.45
2023-04-12T03:08:45.344Z,60.38
2023-04-12T03:09:17.400Z,60.63
2023-04-12T03:09:51.694Z,60.88
2023-04-12T03:10:26.267Z,60.58
2023-04-12T03:11:09.231Z,60.08
2023-04-12T03:11:41.225Z,60.80
2023-04-12T03:12:13.298Z,60.85
2023-04-12T03:12:54.367Z,60.60
2023-04-12T03:13:26.427Z,60.28
2023-04-12T03:13:59.821Z,60.33
2023-04-12T03:14:34.100Z,61.35
2023-04-12T03:15:07.447Z,60.58
2023-04-12T03:15:43.633Z,61.47
2023-04-12T03:16:23.499Z,60.05
2023-04-12T03:17:00.443Z,60.95
2023-04-12T03:17:33.675Z,60.25
2023-04-12T03:18:06.604Z,60.63
2023-04-12T03:18:48.324Z,60.80
2023-04-12T03:19:24.813Z,60.90
2023-04-12T03:20:04.639Z,60.95
2023-04-12T03:20:46.131Z,60.65
2023-04-12T03:21:19.550Z,60.95
2023-04-12T03:21:58.542Z,60.65
2023-04-12T03:22:32.218Z,61.03
2023-04-12T03:23:05.541Z,60.45
2023-04-12T03:23:42.407Z,60.38
2023-04-12T03:24:22.505Z,61.00
2023-04-12T03:24:57.130Z,60.03
2023-04-12T03:25:30.544Z,60.30
2023-04-12T03:26:10.679Z,60.40
2023-04-12T03:26:44.016Z,61.55
2023-04-12T03:27:25.487Z,60.60
2023-04-12T03:27:57.770Z,60.80
2023-04-12T03:28:39.031Z,60.60
2023-04-12T03:29:13.343Z,61.15
2023-04-12T03:29:48.457Z,60.15
2023-04-12T03:30:22.280Z,60.15
2023-04-12T03:30:56.797Z,60.50
2023-04-12T03:31:33.333Z,60.17
2023-04-12T03:32:11.743Z,59.30
2023-04-12T03:32:45.006Z,60.97
2023-04-12T03:33:17.278Z,60.20
2023-04-12T03:33:51.406Z,60.65
2023-04-12T03:34:32.283Z,60.43
2023-04-12T03:35:10.522Z,60.60
2023-04-12T03:35:45.399Z,59.95
2023-04-12T03:36:21.103Z,60.10
2023-04-12T03:36:58.178Z,60.55
2023-04-12T03:37:44.344Z,60.92
2023-04-12T03:38:17.416Z,60.33
2023-04-12T03:38:49.734Z,60.65
2023-04-12T03:39:23.531Z,60.85
2023-04-12T03:39:56.961Z,60.35
2023-04-12T03:40:30.312Z,60.28
2023-04-12T03:41:04.872Z,59.70
2023-04-12T03:41:42.403Z,60.05
2023-04-12T03:42:29.322Z,60.80
2023-04-12T03:43:08.633Z,59.95
2023-04-12T03:43:42.499Z,60.75
2023-04-12T03:44:22.580Z,61.10
2023-04-12T03:44:57.159Z,61.28
2023-04-12T03:45:29.218Z,60.15
2023-04-12T03:46:04.584Z,60.03
2023-04-12T03:46:37.560Z,60.65
2023-04-12T03:47:14.794Z,60.35
2023-04-12T03:47:46.762Z,60.88
2023-04-12T03:48:20.744Z,60.20
2023-04-12T03:48:54.105Z,60.88
2023-04-12T03:49:27.648Z,60.05
2023-04-12T03:50:44.737Z,60.13
2023-04-12T03:51:26.834Z,59.70
2023-04-12T03:52:06.370Z,60.22
2023-04-12T03:52:39.361Z,60.40
2023-04-12T03:53:12.438Z,60.53
2023-04-12T03:53:48.418Z,61.45
2023-04-12T03:54:23.031Z,60.38
2023-04-12T03:55:18.061Z,60.33
2023-04-12T03:55:51.712Z,60.90
2023-04-12T03:56:23.600Z,60.70
2023-04-12T03:56:59.411Z,61.05
2023-04-12T03:57:43.363Z,60.40
2023-04-12T03:58:16.583Z,60.90
2023-04-12T03:58:50.518Z,60.58
2023-04-12T03:59:25.488Z,60.38
2023-04-12T03:59:58.819Z,60.92
2023-04-12T04:00:39.433Z,62.15
2023-04-12T04:01:15.307Z,60.00
2023-04-12T04:01:49.151Z,60.63
2023-04-12T04:02:21.473Z,61.58
2023-04-12T04:03:03.195Z,60.10
2023-04-12T04:03:38.815Z,61.00
2023-04-12T04:04:22.907Z,60.72
2023-04-12T04:04:59.836Z,60.47
2023-04-12T04:05:32.694Z,60.05
2023-04-12T04:06:07.658Z,60.80
2023-04-12T04:06:41.897Z,60.42
2023-04-12T04:07:14.140Z,60.42
2023-04-12T04:07:48.877Z,60.15
2023-04-12T04:08:22.072Z,59.95
2023-04-12T04:08:58.199Z,59.97
2023-04-12T04:09:33.714Z,60.58
2023-04-12T04:10:06.931Z,60.53
2023-04-12T04:10:42.861Z,60.55
2023-04-12T04:11:16.292Z,60.72
2023-04-12T04:11:53.224Z,60.67
2023-04-12T04:12:28.072Z,60.05
2023-04-12T04:13:00.782Z,60.30
2023-04-12T04:13:33.045Z,60.50
2023-04-12T04:14:10.522Z,60.13
2023-04-12T04:14:42.514Z,61.03
2023-04-12T04:15:19.175Z,61.22
2023-04-12T04:16:00.287Z,60.78
2023-04-12T04:16:33.558Z,60.58
2023-04-12T04:17:07.501Z,60.60
2023-04-12T04:17:42.787Z,60.63
2023-04-12T04:18:15.400Z,60.25
2023-04-12T04:18:47.559Z,60.38
2023-04-12T04:19:22.803Z,60.60
2023-04-12T04:19:54.702Z,60.30
2023-04-12T04:20:27.820Z,60.95
2023-04-12T04:21:01.032Z,60.65
2023-04-12T04:21:35.282Z,60.47
2023-04-12T04:22:10.068Z,60.70
2023-04-12T04:22:42.373Z,60.97
2023-04-12T04:23:15.379Z,61.20
2023-04-12T04:23:48.599Z,61.70
2023-04-12T04:24:22.325Z,60.75
2023-04-12T04:24:58.317Z,60.47
2023-04-12T04:25:31.467Z,60.55
2023-04-12T04:26:10.101Z,60.72
2023-04-12T04:26:45.512Z,60.60
2023-04-12T04:27:30.632Z,61.65
2023-04-12T04:28:04.314Z,60.38
2023-04-12T04:28:38.484Z,60.85
2023-04-12T04:29:11.907Z,61.22
2023-04-12T04:29:45.557Z,61.38
2023-04-12T04:30:23.033Z,60.63
2023-04-12T04:30:56.897Z,60.95
2023-04-12T04:31:34.548Z,60.78
2023-04-12T04:32:08.480Z,60.83
2023-04-12T04:32:41.937Z,61.83
2023-04-12T04:33:15.871Z,60.72
2023-04-12T04:33:48.077Z,60.75
2023-04-12T04:34:22.101Z,60.50
2023-04-12T04:34:56.656Z,60.65
2023-04-12T04:35:28.637Z,60.55
2023-04-12T04:36:26.527Z,60.28
2023-04-12T04:37:00.669Z,60.38
2023-04-12T04:37:35.281Z,60.80
2023-04-12T04:38:08.397Z,62.17
2023-04-12T04:38:41.986Z,61.10
2023-04-12T04:39:27.213Z,60.63
2023-04-12T04:40:01.536Z,61.22
2023-04-12T04:40:36.614Z,61.30
2023-04-12T04:41:10.419Z,60.97
2023-04-12T04:41:55.033Z,61.80
2023-04-12T04:42:54.720Z,61.33
2023-04-12T04:43:30.370Z,61.20
2023-04-12T04:44:09.717Z,61.75
2023-04-12T04:44:46.210Z,61.58
2023-04-12T04:45:18.502Z,61.00
2023-04-12T04:45:54.809Z,61.63
2023-04-12T04:46:30.572Z,61.88
2023-04-12T04:47:02.589Z,61.55
2023-04-12T04:47:34.600Z,61.80
2023-04-12T04:48:07.978Z,62.30
2023-04-12T04:48:40.917Z,61.97
2023-04-12T04:49:13.795Z,62.42
2023-04-12T04:49:45.808Z,61.78
2023-04-12T04:50:29.943Z,61.75
2023-04-12T04:51:03.199Z,61.75
2023-04-12T04:51:36.586Z,61.58
2023-04-12T04:52:09.898Z,61.28
2023-04-12T04:52:42.841Z,62.05
2023-04-12T04:53:19.573Z,61.17
2023-04-12T04:53:52.287Z,62.00
2023-04-12T04:54:25.934Z,62.20
2023-04-12T04:54:57.992Z,61.35
2023-04-12T04:55:33.574Z,61.08
2023-04-12T04:56:07.881Z,61.60
2023-04-12T04:56:41.001Z,61.70
2023-04-12T04:57:14.982Z,61.97
2023-04-12T04:57:46.962Z,61.97
2023-04-12T04:58:20.658Z,60.97
2023-04-12T04:58:56.338Z,61.10
2023-04-12T04:59:30.350Z,62.15
2023-04-12T05:00:26.447Z,61.45
2023-04-12T05:01:03.661Z,61.38
2023-04-12T05:01:36.618Z,61.85
2023-04-12T05:02:11.272Z,62.60
2023-04-12T05:02:54.369Z,61.67
2023-04-12T05:03:34.835Z,61.78
2023-04-12T05:04:06.920Z,61.08
2023-04-12T05:04:38.916Z,60.85
2023-04-12T05:05:13.551Z,61.67
2023-04-12T05:05:48.633Z,61.33
2023-04-12T05:06:20.669Z,61.40
2023-04-12T05:06:54.108Z,60.83
2023-04-12T05:07:30.451Z,61.50
2023-04-12T05:08:03.419Z,62.58
2023-04-12T05:08:38.765Z,61.60
2023-04-12T05:09:10.867Z,61.63
2023-04-12T05:09:48.978Z,62.13
2023-04-12T05:10:23.445Z,61.65
2023-04-12T05:10:57.011Z,62.58
2023-04-12T05:11:33.231Z,61.83
2023-04-12T05:12:06.353Z,62.30
2023-04-12T05:12:38.341Z,62.25
2023-04-12T05:13:10.311Z,61.40
2023-04-12T05:13:43.307Z,61.47
2023-04-12T05:14:15.737Z,62.17
2023-04-12T05:14:51.911Z,61.95
2023-04-12T05:15:25.342Z,61.85
2023-04-12T05:15:57.632Z,62.08
2023-04-12T05:16:30.966Z,61.88
2023-04-12T05:17:03.943Z,61.75
2023-04-12T05:17:36.260Z,61.75
2023-04-12T05:18:08.336Z,62.13
2023-04-12T05:18:41.271Z,62.33
2023-04-12T05:19:13.207Z,61.38
2023-04-12T05:19:45.724Z,62.38
2023-04-12T05:20:18.985Z,61.97
2023-04-12T05:20:50.959Z,61.95
2023-04-12T05:21:24.438Z,62.85
2023-04-12T05:21:59.289Z,62.58
2023-04-12T05:22:31.680Z,62.15
2023-04-12T05:23:03.939Z,63.03
2023-04-12T05:23:38.078Z,62.40
2023-04-12T05:24:10.702Z,62.05
2023-04-12T05:24:44.066Z,62.88
2023-04-12T05:25:17.061Z,62.17
2023-04-12T05:25:57.086Z,62.55
2023-04-12T05:26:31.483Z,62.33
2023-04-12T05:27:04.152Z,63.13
2023-04-12T05:27:36.372Z,62.30
2023-04-12T05:28:14.326Z,62.83
2023-04-12T05:28:46.973Z,62.20
2023-04-12T05:29:20.649Z,62.83
2023-04-12T05:29:53.153Z,62.78
2023-04-12T05:30:25.521Z,62.22
2023-04-12T05:30:58.729Z,62.30
2023-04-12T05:31:39.738Z,63.17
2023-04-12T05:32:18.469Z,63.00
2023-04-12T05:33:04.789Z,63.80
2023-04-12T05:33:44.841Z,62.25
2023-04-12T05:34:17.117Z,63.63
2023-04-12T05:35:12.013Z,63.25
2023-04-12T05:36:02.047Z,63.03
2023-04-12T05:36:49.908Z,63.10
2023-04-12T05:37:22.003Z,63.22
2023-04-12T05:37:54.057Z,62.95
2023-04-12T05:38:27.209Z,63.28
2023-04-12T05:39:02.211Z,62.75
2023-04-12T05:39:34.466Z,62.92
2023-04-12T05:40:09.713Z,63.65
2023-04-12T05:40:44.044Z,63.17
2023-04-12T05:41:17.789Z,63.42
2023-04-12T05:41:51.084Z,64.50
2023-04-12T05:42:23.138Z,63.88
2023-04-12T05:42:55.028Z,63.83
2023-04-12T05:43:29.103Z,65.15
2023-04-12T05:44:03.594Z,63.80
2023-04-12T05:44:35.880Z,64.32
2023-04-12T05:45:10.546Z,65.18
2023-04-12T05:45:43.199Z,65.10
2023-04-12T05:46:15.435Z,64.93
2023-04-12T05:46:52.294Z,66.78
2023-04-12T05:47:24.266Z,63.00
2023-04-12T05:47:56.431Z,64.43
2023-04-12T05:48:33.179Z,65.32
2023-04-12T05:49:06.966Z,64.15
2023-04-12T05:49:38.826Z,65.07
2023-04-12T05:50:15.072Z,63.70
2023-04-12T05:50:51.460Z,64.93
2023-04-12T05:51:37.826Z,66.03
2023-04-12T05:52:16.542Z,64.60
2023-04-12T05:52:48.684Z,65.10
2023-04-12T05:53:21.759Z,65.57
2023-04-12T05:53:54.880Z,64.80
2023-04-12T05:54:27.242Z,64.28
2023-04-12T05:55:00.336Z,65.10
2023-04-12T05:55:35.942Z,65.05
2023-04-12T05:56:09.684Z,64.28
2023-04-12T05:56:41.964Z,64.80
2023-04-12T05:57:15.391Z,64.30
2023-04-12T05:57:47.612Z,67.00
2023-04-12T05:58:22.403Z,65.20
2023-04-12T05:58:58.523Z,64.40
2023-04-12T05:59:31.863Z,63.97
2023-04-12T06:00:13.269Z,65.13
2023-04-12T06:00:49.614Z,65.68
2023-04-12T06:01:21.565Z,66.75
2023-04-12T06:01:56.483Z,65.65
2023-04-12T06:02:29.595Z,64.22
2023-04-12T06:03:02.735Z,65.03
2023-04-12T06:03:34.943Z,65.40
2023-04-12T06:04:15.220Z,65.30
2023-04-12T06:04:50.807Z,64.53
2023-04-12T06:05:24.885Z,66.53
2023-04-12T06:05:57.775Z,64.32
2023-04-12T06:06:30.380Z,66.13
2023-04-12T06:07:03.511Z,66.57
2023-04-12T06:07:37.198Z,67.80
2023-04-12T06:08:10.249Z,65.55
2023-04-12T06:08:43.183Z,64.80
2023-04-12T06:09:15.587Z,65.32
2023-04-12T06:09:49.798Z,64.97
2023-04-12T06:10:23.469Z,66.63
2023-04-12T06:10:57.904Z,65.00
2023-04-12T06:11:33.734Z,64.45
2023-04-12T06:12:07.685Z,65.05
2023-04-12T06:12:41.277Z,65.03
2023-04-12T06:13:14.552Z,66.45
2023-04-12T06:13:47.966Z,65.05
2023-04-12T06:14:20.042Z,65.60
2023-04-12T06:14:53.004Z,63.58
2023-04-12T06:15:25.414Z,64.35
2023-04-12T06:16:01.202Z,65.22
2023-04-12T06:16:33.540Z,66.47
2023-04-12T06:17:06.866Z,64.65
2023-04-12T06:17:39.781Z,65.65
2023-04-12T06:18:13.014Z,66.97
2023-04-12T06:18:49.985Z,64.57
2023-04-12T06:19:22.058Z,65.88
2023-04-12T06:19:55.829Z,63.70
2023-04-12T06:20:29.021Z,65.38
2023-04-12T06:21:00.932Z,65.18
2023-04-12T06:21:33.255Z,66.05
2023-04-12T06:22:06.337Z,66.53
2023-04-12T06:22:38.819Z,64.78
2023-04-12T06:23:12.752Z,65.82
2023-04-12T06:23:47.186Z,66.57
2023-04-12T06:24:20.114Z,65.80
2023-04-12T06:24:52.714Z,64.95
2023-04-12T06:25:25.977Z,65.13
2023-04-12T06:26:00.144Z,67.05
2023-04-12T06:26:39.765Z,66.22
2023-04-12T06:27:13.633Z,65.85
2023-04-12T06:27:45.705Z,64.75
2023-04-12T06:28:20.474Z,66.23
2023-04-12T06:28:54.740Z,67.55
2023-04-12T06:29:26.788Z,66.78
2023-04-12T06:29:59.881Z,65.00
2023-04-12T06:30:32.054Z,65.75
2023-04-12T06:31:04.305Z,66.57
2023-04-12T06:31:41.801Z,65.13
2023-04-12T06:32:15.410Z,65.43
2023-04-12T06:32:50.687Z,67.95
2023-04-12T06:33:23.024Z,64.45
2023-04-12T06:33:55.516Z,65.18
2023-04-12T06:34:28.440Z,64.95
2023-04-12T06:35:04.802Z,66.78
2023-04-12T06:35:37.710Z,71.60
2023-04-12T06:36:11.745Z,69.57
2023-04-12T06:36:46.308Z,66.30
2023-04-12T06:37:19.390Z,74.30
2023-04-12T06:37:51.367Z,66.30
2023-04-12T06:38:23.358Z,65.95
2023-04-12T06:38:56.467Z,67.78
2023-04-12T06:39:28.646Z,69.28
2023-04-12T06:40:00.657Z,64.57
2023-04-12T06:40:33.770Z,73.05
2023-04-12T06:41:06.244Z,72.93
2023-04-12T06:41:38.285Z,73.70
2023-04-12T06:42:13.222Z,69.20
2023-04-12T06:42:46.410Z,73.53
2023-04-12T06:43:20.200Z,65.70
2023-04-12T06:43:53.075Z,74.72
2023-04-12T06:44:26.297Z,65.05
2023-04-12T06:44:59.199Z,72.90
2023-04-12T06:45:31.231Z,67.53
2023-04-12T06:46:04.398Z,67.60
2023-04-12T06:46:36.421Z,65.30
2023-04-12T06:47:08.658Z,65.60
2023-04-12T06:47:43.129Z,76.22
2023-04-12T06:48:15.183Z,70.60
2023-04-12T06:48:47.106Z,66.50
2023-04-12T06:49:20.027Z,68.97
2023-04-12T06:49:54.867Z,69.88
2023-04-12T06:50:27.971Z,65.05
2023-04-12T06:51:01.562Z,65.75
2023-04-12T06:51:35.435Z,64.47
2023-04-12T06:52:07.445Z,69.05
2023-04-12T06:52:40.419Z,66.55
2023-04-12T06:53:13.476Z,65.35
2023-04-12T06:53:45.442Z,67.00
2023-04-12T06:54:18.434Z,68.80
2023-04-12T06:54:50.528Z,65.85
2023-04-12T06:55:22.565Z,74.57
2023-04-12T06:55:55.567Z,67.43
2023-04-12T06:56:27.443Z,70.45
2023-04-12T06:57:01.016Z,69.28
2023-04-12T06:57:33.889Z,76.82
2023-04-12T06:58:05.821Z,66.57
2023-04-12T06:58:37.669Z,67.30
2023-04-12T06:59:10.643Z,72.65
2023-04-12T06:59:42.567Z,69.97
2023-04-12T07:00:15.111Z,65.40
2023-04-12T07:00:48.045Z,65.38
2023-04-12T07:01:20.060Z,77.82
2023-04-12T07:01:53.014Z,71.45
2023-04-12T07:02:25.019Z,66.50
2023-04-12T07:02:58.614Z,66.28
2023-04-12T07:03:33.215Z,72.50
2023-04-12T07:04:05.370Z,67.30
2023-04-12T07:04:38.433Z,66.53
2023-04-12T07:05:10.410Z,76.30
2023-04-12T07:05:42.300Z,70.07
2023-04-12T07:06:25.221Z,68.68
2023-04-12T07:06:58.174Z,64.95
2023-04-12T07:07:31.151Z,65.28
2023-04-12T07:08:03.049Z,69.75
2023-04-12T07:08:35.803Z,73.30
2023-04-12T07:09:08.696Z,72.55
2023-04-12T07:09:40.700Z,66.35
2023-04-12T07:10:12.718Z,66.50
2023-04-12T07:10:45.578Z,68.10
2023-04-12T07:11:21.536Z,79.97
2023-04-12T07:11:55.066Z,82.32
2023-04-12T07:12:27.017Z,66.40
2023-04-12T07:13:03.539Z,82.50
2023-04-12T07:13:36.087Z,73.32
2023-04-12T07:14:08.992Z,71.05
2023-04-12T07:14:42.356Z,65.47
2023-04-12T07:15:15.656Z,77.97
2023-04-12T07:15:50.538Z,74.57
2023-04-12T07:16:22.561Z,68.35
2023-04-12T07:16:55.632Z,70.90
2023-04-12T07:17:27.638Z,77.97
2023-04-12T07:18:01.014Z,73.55
2023-04-12T07:18:33.942Z,66.60
2023-04-12T07:19:05.854Z,81.03
2023-04-12T07:19:39.466Z,67.55
2023-04-12T07:20:12.210Z,66.13
2023-04-12T07:20:45.173Z,67.13
2023-04-12T07:21:18.013Z,66.90
2023-04-12T07:21:50.123Z,70.25
2023-04-12T07:22:23.283Z,66.32
2023-04-12T07:22:55.401Z,66.50
2023-04-12T07:23:27.662Z,67.13
2023-04-12T07:24:01.568Z,66.30
2023-04-12T07:24:33.571Z,65.88
2023-04-12T07:25:10.174Z,67.35
2023-04-12T07:25:43.305Z,67.67
2023-04-12T07:26:15.572Z,66.75
2023-04-12T07:26:47.567Z,72.90
2023-04-12T07:27:20.523Z,65.13
2023-04-12T07:27:52.457Z,68.82
2023-04-12T07:28:25.344Z,74.00
2023-04-12T07:28:57.694Z,67.03
2023-04-12T07:29:29.847Z,66.72